createdAt,value
2023-04-12T00:03:10.215Z,3.40
2023-04-12T00:08:11.772Z,3.80
2023-04-12T00:13:12.782Z,2.80
2023-04-12T00:18:13.742Z,1.80
2023-04-12T00:23:16.522Z,1.50
2023-04-12T00:28:18.992Z,3.00
2023-04-12T00:33:20.023Z,2.90
2023-04-12T00:38:21.184Z,2.90
2023-04-12T00:43:23.231Z,3.10
2023-04-12T00:48:25.729Z,3.20
2023-04-12T00:53:27.571Z,2.70
2023-04-12T00:58:28.529Z,2.60
2023-04-12T01:03:29.967Z,2.50
2023-04-12T01:09:01.559Z,2.10
2023-04-12T01:14:21.640Z,3.50
2023-04-12T01:19:35.216Z,4.40
2023-04-12T01:24:55.246Z,3.50
2023-04-12T01:30:00.670Z,2.70
2023-04-12T01:35:03.934Z,2.90
2023-04-12T01:40:08.469Z,4.40
2023-04-12T01:45:10.025Z,3.50
2023-04-12T01:50:23.118Z,2.90
2023-04-12T01:55:26.076Z,2.10
2023-04-12T02:00:28.255Z,2.90
2023-04-12T02:05:30.658Z,3.40
2023-04-12T02:10:32.864Z,2.90
2023-04-12T02:15:34.101Z,2.90
2023-04-12T02:20:35.330Z,3.30
2023-04-12T02:25:37.876Z,3.60
2023-04-12T02:30:40.902Z,3.70
2023-04-12T02:35:42.819Z,3.90
2023-04-12T02:40:46.933Z,2.90
2023-04-12T02:45:50.026Z,3.00
2023-04-12T02:50:51.115Z,3.00
2023-04-12T02:55:56.647Z,4.20
2023-04-12T03:01:00.375Z,4.10
2023-04-12T03:06:05.632Z,3.50
2023-04-12T03:11:08.070Z,3.20
2023-04-12T03:16:22.769Z,3.70
2023-04-12T03:21:27.638Z,4.90
2023-04-12T03:26:30.543Z,4.00
2023-04-12T03:31:35.921Z,4.50
2023-04-12T03:36:42.254Z,4.00
2023-04-12T03:41:53.971Z,2.80
2023-04-12T03:46:57.563Z,3.80
2023-04-12T03:51:59.092Z,5.90
2023-04-12T03:57:01.377Z,4.50
2023-04-12T04:02:09.796Z,3.90
2023-04-12T04:07:15.789Z,4.80
2023-04-12T04:12:18.805Z,4.70
2023-04-12T04:17:21.465Z,4.90
2023-04-12T04:22:23.205Z,7.80
2023-04-12T04:27:29.788Z,7.10
2023-04-12T04:32:33.286Z,12.50
2023-04-12T04:37:34.989Z,18.20
2023-04-12T04:42:37.742Z,11.60
2023-04-12T04:47:40.511Z,10.40
2023-04-12T04:52:41.753Z,18.80
2023-04-12T04:57:46.576Z,9.10
2023-04-12T05:02:48.789Z,7.90
2023-04-12T05:07:57.480Z,7.90
2023-04-12T05:12:58.798Z,7.70
2023-04-12T05:18:00.237Z,10.60
2023-04-12T05:23:01.871Z,6.40
2023-04-12T05:28:02.881Z,9.10
2023-04-12T05:33:03.969Z,6.90
2023-04-12T05:38:05.618Z,5.80
2023-04-12T05:43:07.802Z,6.20
2023-04-12T05:48:09.092Z,11.10
2023-04-12T05:53:10.140Z,5.30
2023-04-12T05:58:11.175Z,5.50
2023-04-12T06:03:12.404Z,4.80
2023-04-12T06:08:14.137Z,6.50
2023-04-12T06:13:16.342Z,5.60
2023-04-12T06:18:17.665Z,2.70
2023-04-12T06:23:19.805Z,5.40
2023-04-12T06:28:21.558Z,4.10
2023-04-12T06:33:25.416Z,4.80
2023-04-12T06:38:27.191Z,4.50
2023-04-12T06:43:28.171Z,3.70
2023-04-12T06:48:29.241Z,4.70
2023-04-12T06:53:30.567Z,4.00
2023-04-12T06:58:31.603Z,4.30
2023-04-12T07:03:34.680Z,5.70
2023-04-12T07:08:36.041Z,4.30
2023-04-12T07:13:37.388Z,4.20
2023-04-12T07:18:39.234Z,6.10
2023-04-12T07:23:40.473Z,3.50
2023-04-12T07:28:41.439Z,4.50
2023-04-12T07:33:43.689Z,4.80
2023-04-12T07:38:44.942Z,4.00
2023-04-12T07:43:46.072Z,4.60
2023-04-12T07:48:47.075Z,4.20
2023-04-12T07:53:48.140Z,5.00
2023-04-12T07:58:49.097Z,3.90
2023-04-12T08:03:50.172Z,3.30
2023-04-12T08:08:51.286Z,3.70
2023-04-12T08:13:52.732Z,3.60
2023-04-12T08:18:53.706Z,3.60
2023-04-12T08:23:55.801Z,3.60
2023-04-12T08:28:57.673Z,2.90
2023-04-12T08:33:59.281Z,3.00
2023-04-12T08:39:00.674Z,3.70
2023-04-12T08:44:02.679Z,4.00
2023-04-12T08:49:03.817Z,3.10
2023-04-12T08:54:04.975Z,3.00
2023-04-12T08:59:06.267Z,3.60
2023-04-12T09:04:07.523Z,2.50
2023-04-12T09:09:08.914Z,2.40
2023-04-12T09:14:24.393Z,3.00
2023-04-12T09:19:35.686Z,2.90
2023-04-12T09:24:46.731Z,2.70
2023-04-12T09:29:51.323Z,2.50
2023-04-12T09:35:01.604Z,2.30
2023-04-12T09:40:09.900Z,1.90
2023-04-12T09:45:23.134Z,2.20
2023-04-12T09:50:28.882Z,1.80
2023-04-12T09:55:31.335Z,2.20
2023-04-12T10:00:33.615Z,1.80
2023-04-12T10:05:35.868Z,1.70
2023-04-12T10:10:37.591Z,1.80
2023-04-12T10:15:39.676Z,1.70
2023-04-12T10:20:42.945Z,2.00
2023-04-12T10:25:49.789Z,5.10
2023-04-12T10:30:53.975Z,1.60
2023-04-12T10:35:59.553Z,1.60
2023-04-12T10:41:14.244Z,1.50
2023-04-12T10:46:37.651Z,1.20
2023-04-12T10:51:40.309Z,1.50
2023-04-12T10:56:48.458Z,1.70
2023-04-12T11:02:11.736Z,1.30
2023-04-12T11:07:15.393Z,1.90
2023-04-12T11:12:26.468Z,1.60
2023-04-12T11:17:27.702Z,1.70
2023-04-12T11:22:31.143Z,1.50
2023-04-12T11:27:32.294Z,1.60
2023-04-12T11:32:34.490Z,1.20
2023-04-12T11:37:35.921Z,1.80
2023-04-12T11:42:38.947Z,2.30
2023-04-12T11:47:43.702Z,1.80
2023-04-12T11:52:44.988Z,1.70
2023-04-12T11:57:52.989Z,2.60
2023-04-12T12:03:06.649Z,2.60
2023-04-12T12:08:08.674Z,1.80
2023-04-12T12:13:11.436Z,2.70
2023-04-12T12:18:12.621Z,2.40
2023-04-12T12:23:35.736Z,1.90
2023-04-12T12:28:39.667Z,2.20
2023-04-12T12:33:46.789Z,1.70
2023-04-12T12:38:52.430Z,2.00
2023-04-12T12:43:53.435Z,1.90
2023-04-12T12:48:54.599Z,3.30
2023-04-12T12:53:55.846Z,1.90
2023-04-12T12:58:57.176Z,1.80
2023-04-12T13:03:58.413Z,1.50
2023-04-12T13:08:59.893Z,1.70
2023-04-12T13:14:01.202Z,2.10
2023-04-12T13:19:02.195Z,2.60
2023-04-12T13:24:03.190Z,2.00
2023-04-12T13:29:04.441Z,4.30
2023-04-12T13:34:05.491Z,2.40
2023-04-12T13:39:06.801Z,3.30
2023-04-12T13:44:08.002Z,3.50
2023-04-12T13:49:09.014Z,2.30
2023-04-12T13:54:10.726Z,2.20
2023-04-12T13:59:12.048Z,2.40
2023-04-12T14:04:13.065Z,3.30
2023-04-12T14:09:27.800Z,2.50
2023-04-12T14:14:28.737Z,2.00
2023-04-12T14:19:30.309Z,2.00
2023-04-12T14:24:31.320Z,2.10
2023-04-12T14:29:33.571Z,2.80
2023-04-12T14:34:37.393Z,2.40
2023-04-12T14:39:41.060Z,3.00
2023-04-12T14:44:42.027Z,3.20
2023-04-12T14:49:43.156Z,2.90
2023-04-12T14:54:44.042Z,3.50
2023-04-12T14:59:45.466Z,3.20
2023-04-12T15:04:50.398Z,4.00
2023-04-12T15:09:51.480Z,2.60
2023-04-12T15:14:53.271Z,2.80
2023-04-12T15:19:54.680Z,2.80
2023-04-12T15:24:56.120Z,2.40
2023-04-12T15:29:57.905Z,2.90
2023-04-12T15:35:02.826Z,3.50
2023-04-12T15:40:12.830Z,3.30
2023-04-12T15:45:13.907Z,3.70
2023-04-12T15:50:14.933Z,3.20
2023-04-12T15:55:21.125Z,3.40
2023-04-12T16:00:25.583Z,3.10
2023-04-12T16:05:26.906Z,3.40
2023-04-12T16:10:27.973Z,3.50
2023-04-12T16:15:28.919Z,3.00
2023-04-12T16:20:31.011Z,3.80
2023-04-12T16:25:33.145Z,3.30
2023-04-12T16:30:34.489Z,3.30
2023-04-12T16:35:35.938Z,3.20
2023-04-12T16:40:47.136Z,2.90
2023-04-12T16:45:48.509Z,3.20
2023-04-12T16:50:49.488Z,3.00
2023-04-12T16:55:50.767Z,3.20
2023-04-12T17:00:52.710Z,3.30
2023-04-12T17:05:53.886Z,2.60
2023-04-12T17:10:54.852Z,2.70
2023-04-12T17:15:55.995Z,2.20
2023-04-12T17:20:57.998Z,2.60
2023-04-12T17:25:59.058Z,3.50
2023-04-12T17:31:01.828Z,3.20
2023-04-12T17:36:03.734Z,3.00
2023-04-12T17:41:05.862Z,3.70
2023-04-12T17:46:06.882Z,4.40
2023-04-12T17:51:09.168Z,10.00
2023-04-12T17:56:10.124Z,8.00
2023-04-12T18:01:11.224Z,7.00
2023-04-12T18:06:13.145Z,8.00
2023-04-12T18:11:14.081Z,7.40
2023-04-12T18:16:15.251Z,11.70
2023-04-12T18:21:20.329Z,11.10
2023-04-12T18:26:22.467Z,10.70
2023-04-12T18:31:23.816Z,8.50
2023-04-12T18:36:26.494Z,7.30
2023-04-12T18:41:27.767Z,14.00
2023-04-12T18:46:28.991Z,13.20
2023-04-12T18:51:32.023Z,10.10
2023-04-12T18:56:33.006Z,9.70
2023-04-12T19:01:35.054Z,11.10
2023-04-12T19:06:36.338Z,8.20
2023-04-12T19:11:37.720Z,10.40
2023-04-12T19:16:38.827Z,11.50
2023-04-12T19:21:40.337Z,10.00
2023-04-12T19:26:46.215Z,12.00
2023-04-12T19:31:48.848Z,9.00
2023-04-12T19:36:49.945Z,10.10
2023-04-12T19:41:54.193Z,14.90
2023-04-12T19:51:58.315Z,15.40
2023-04-12T19:56:59.506Z,14.00
2023-04-12T20:02:01.039Z,15.00
2023-04-12T20:07:02.217Z,25.90
2023-04-12T20:12:05.890Z,21.70
2023-04-12T20:17:07.320Z,20.70
2023-04-12T20:22:08.391Z,12.60
2023-04-12T20:27:10.702Z,15.30
2023-04-12T20:32:13.520Z,13.90
2023-04-12T20:37:16.227Z,16.30
2023-04-12T20:42:19.917Z,12.50
2023-04-12T20:47:21.702Z,12.60
2023-04-12T20:52:22.913Z,10.90
2023-04-12T20:57:24.959Z,13.80
2023-04-12T21:02:26.105Z,18.00
2023-04-12T21:07:29.325Z,11.30
2023-04-12T21:12:31.519Z,12.00
2023-04-12T21:17:35.226Z,13.60
2023-04-12T21:22:36.296Z,13.40
2023-04-12T21:27:37.767Z,9.40
2023-04-12T21:32:40.332Z,11.50
2023-04-12T21:37:41.709Z,19.20
2023-04-12T21:42:45.386Z,17.40
2023-04-12T21:53:23.226Z,13.60
2023-04-12T21:58:24.181Z,15.60
2023-04-12T22:03:25.640Z,16.20
2023-04-12T22:08:26.740Z,14.70
2023-04-12T22:13:27.839Z,20.30
2023-04-12T22:18:30.969Z,20.70
2023-04-12T22:23:31.969Z,17.00
2023-04-12T22:28:35.575Z,18.50
2023-04-12T22:33:37.427Z,16.10
2023-04-12T22:38:38.537Z,15.40
2023-04-12T22:43:42.645Z,16.00
2023-04-12T22:48:47.410Z,16.80
2023-04-12T22:53:49.650Z,32.50
2023-04-12T22:58:50.640Z,26.20
2023-04-12T23:03:52.067Z,20.80
2023-04-12T23:08:53.525Z,22.60
2023-04-12T23:14:01.073Z,22.40
2023-04-12T23:19:05.594Z,21.30
2023-04-12T23:24:07.425Z,22.30
2023-04-12T23:29:08.487Z,16.80
2023-04-12T23:34:09.455Z,33.30
2023-04-12T23:39:10.983Z,28.10
2023-04-12T23:44:27.298Z,17.90
2023-04-12T23:49:31.059Z,20.60
2023-04-12T23:54:45.665Z,22.50
2023-04-12T23:59:46.605Z,16.70
